Valier, Pennsylvania
Current Conditions -  °F | °C
As of 9:53 PM on Saturday 25 Oct 2014 (Local Time) from KDUJ Reporting Station
Few Clouds Few Clouds  
Wind Chill: 55°   Ceiling: Unl
Heat Index: 55°   Visibility: 10mi
Dew Point: 40°   Wind: 10mph
Humidity: 57%   Direction: 270°W
Pressure: 29.7"   Gusts: NA
Location:  40.92°N, 79.04°W
Report Text: KDUJ 260153Z AUTO 27009KT 10SM FEW065 13/04 A2970 RMK AO2 SLP056 T01280044 $
Loading
Personal Weather Stations






























Interactive Weather Map
Tropical Storm Tracking
New forecast layout! Learn more

10-Day Weather Forecast

Advertisements
Track Severe Weather on mobile